sensor_id;sensor_type;location;lat;lon;timestamp;pressure;altitude;pressure_sealevel;temperature;humidity
32251;BME280;41295;48.518;9.206;2023-02-21T00:02:15;97702.91;;;7.70;52.76
32251;BME280;41295;48.518;9.206;2023-02-21T00:04:35;97703.81;;;7.68;52.89
32251;BME280;41295;48.518;9.206;2023-02-21T00:06:57;97703.00;;;7.66;52.79
32251;BME280;41295;48.518;9.206;2023-02-21T00:09:17;97704.63;;;7.72;52.55
32251;BME280;41295;48.518;9.206;2023-02-21T00:11:40;97697.72;;;7.70;52.58
32251;BME280;41295;48.518;9.206;2023-02-21T00:14:01;97691.72;;;7.67;52.74
32251;BME280;41295;48.518;9.206;2023-02-21T00:16:21;97693.63;;;7.58;53.09
32251;BME280;41295;48.518;9.206;2023-02-21T00:18:41;97693.63;;;7.58;53.03
32251;BME280;41295;48.518;9.206;2023-02-21T00:21:02;97694.50;;;7.56;53.14
32251;BME280;41295;48.518;9.206;2023-02-21T00:23:24;97686.72;;;7.57;53.20
32251;BME280;41295;48.518;9.206;2023-02-21T00:25:44;97688.38;;;7.60;52.98
32251;BME280;41295;48.518;9.206;2023-02-21T00:28:04;97684.91;;;7.63;52.66
32251;BME280;41295;48.518;9.206;2023-02-21T00:30:25;97688.31;;;7.63;52.73
32251;BME280;41295;48.518;9.206;2023-02-21T00:32:45;97686.63;;;7.62;52.80
32251;BME280;41295;48.518;9.206;2023-02-21T00:35:07;97693.63;;;7.58;52.70
32251;BME280;41295;48.518;9.206;2023-02-21T00:37:28;97690.97;;;7.60;52.87
32251;BME280;41295;48.518;9.206;2023-02-21T00:39:49;97688.53;;;7.54;53.04
32251;BME280;41295;48.518;9.206;2023-02-21T00:42:09;97683.34;;;7.52;53.08
32251;BME280;41295;48.518;9.206;2023-02-21T00:44:30;97682.53;;;7.49;53.10
32251;BME280;41295;48.518;9.206;2023-02-21T00:46:50;97688.72;;;7.43;53.10
32251;BME280;41295;48.518;9.206;2023-02-21T00:49:10;97680.19;;;7.34;53.14
32251;BME280;41295;48.518;9.206;2023-02-21T00:51:30;97680.41;;;7.24;52.80
32251;BME280;41295;48.518;9.206;2023-02-21T00:53:51;97678.03;;;7.11;53.67
32251;BME280;41295;48.518;9.206;2023-02-21T00:56:13;97679.00;;;7.04;53.62
32251;BME280;41295;48.518;9.206;2023-02-21T00:58:33;97673.09;;;6.94;53.91
32251;BME280;41295;48.518;9.206;2023-02-21T01:00:53;97673.19;;;6.89;54.07
32251;BME280;41295;48.518;9.206;2023-02-21T01:03:14;97670.69;;;6.83;54.18
32251;BME280;41295;48.518;9.206;2023-02-21T01:05:34;97674.13;;;6.85;54.27
32251;BME280;41295;48.518;9.206;2023-02-21T01:07:54;97675.81;;;6.88;54.27
32251;BME280;41295;48.518;9.206;2023-02-21T01:10:14;97666.41;;;6.82;54.12
32251;BME280;41295;48.518;9.206;2023-02-21T01:12:36;97666.44;;;6.79;54.19
32251;BME280;41295;48.518;9.206;2023-02-21T01:14:56;97663.88;;;6.79;54.12
32251;BME280;41295;48.518;9.206;2023-02-21T01:17:16;97670.91;;;6.69;54.34
32251;BME280;41295;48.518;9.206;2023-02-21T01:19:36;97659.72;;;6.65;54.56
32251;BME280;41295;48.518;9.206;2023-02-21T01:21:57;97671.84;;;6.65;54.61
32251;BME280;41295;48.518;9.206;2023-02-21T01:24:17;97671.00;;;6.64;54.68
32251;BME280;41295;48.518;9.206;2023-02-21T01:26:37;97674.44;;;6.65;54.62
32251;BME280;41295;48.518;9.206;2023-02-21T01:28:58;97669.38;;;6.57;54.72
32251;BME280;41295;48.518;9.206;2023-02-21T01:31:19;97676.28;;;6.56;54.93
32251;BME280;41295;48.518;9.206;2023-02-21T01:33:40;97676.22;;;6.59;54.89
32251;BME280;41295;48.518;9.206;2023-02-21T01:36:03;97670.22;;;6.56;54.63
32251;BME280;41295;48.518;9.206;2023-02-21T01:38:23;97672.00;;;6.55;54.70
32251;BME280;41295;48.518;9.206;2023-02-21T01:40:43;97670.34;;;6.49;54.94
32251;BME280;41295;48.518;9.206;2023-02-21T01:43:13;97668.47;;;6.58;54.93
32251;BME280;41295;48.518;9.206;2023-02-21T01:45:43;97669.34;;;6.58;54.75
32251;BME280;41295;48.518;9.206;2023-02-21T01:48:06;97661.75;;;6.46;55.08
32251;BME280;41295;48.518;9.206;2023-02-21T01:50:28;97667.03;;;6.38;55.19
32251;BME280;41295;48.518;9.206;2023-02-21T01:52:49;97667.03;;;6.38;55.17
32251;BME280;41295;48.518;9.206;2023-02-21T01:55:10;97664.53;;;6.33;55.22
32251;BME280;41295;48.518;9.206;2023-02-21T01:57:32;97662.84;;;6.29;55.38
32251;BME280;41295;48.518;9.206;2023-02-21T01:59:56;97657.69;;;6.28;55.63
32251;BME280;41295;48.518;9.206;2023-02-21T02:02:22;97656.00;;;6.25;55.58
32251;BME280;41295;48.518;9.206;2023-02-21T02:04:47;97661.13;;;6.30;55.61
32251;BME280;41295;48.518;9.206;2023-02-21T02:07:08;97658.44;;;6.37;55.54
32251;BME280;41295;48.518;9.206;2023-02-21T02:09:30;97655.94;;;6.30;56.15
32251;BME280;41295;48.518;9.206;2023-02-21T02:12:02;97654.34;;;6.21;56.28
32251;BME280;41295;48.518;9.206;2023-02-21T02:14:47;97651.09;;;6.03;57.38
32251;BME280;41295;48.518;9.206;2023-02-21T02:16:59;97652.69;;;6.15;57.15
32251;BME280;41295;48.518;9.206;2023-02-21T02:22:07;97653.53;;;6.17;57.40
32251;BME280;41295;48.518;9.206;2023-02-21T02:24:36;97651.84;;;6.13;57.72
32251;BME280;41295;48.518;9.206;2023-02-21T02:29:29;97647.44;;;6.18;57.58
32251;BME280;41295;48.518;9.206;2023-02-21T02:31:44;97644.19;;;6.04;57.87
32251;BME280;41295;48.518;9.206;2023-02-21T02:36:37;97640.03;;;5.90;58.22
32251;BME280;41295;48.518;9.206;2023-02-21T02:38:49;97640.22;;;5.76;58.62
32251;BME280;41295;48.518;9.206;2023-02-21T02:40:58;97635.94;;;5.73;58.96
32251;BME280;41295;48.518;9.206;2023-02-21T02:43:08;97639.34;;;5.75;58.70
32251;BME280;41295;48.518;9.206;2023-02-21T02:45:18;97635.03;;;5.76;58.42
32251;BME280;41295;48.518;9.206;2023-02-21T02:47:25;97634.13;;;5.80;58.56
32251;BME280;41295;48.518;9.206;2023-02-21T02:49:32;97627.22;;;5.82;58.58
32251;BME280;41295;48.518;9.206;2023-02-21T02:51:38;97631.50;;;5.82;58.42
32251;BME280;41295;48.518;9.206;2023-02-21T02:53:40;97629.78;;;5.84;58.33
32251;BME280;41295;48.518;9.206;2023-02-21T02:55:47;97626.25;;;5.88;57.96
32251;BME280;41295;48.518;9.206;2023-02-21T02:57:53;97625.31;;;5.94;57.93
32251;BME280;41295;48.518;9.206;2023-02-21T02:59:56;97628.75;;;5.96;57.85
32251;BME280;41295;48.518;9.206;2023-02-21T03:02:17;97627.88;;;5.98;57.47
32251;BME280;41295;48.518;9.206;2023-02-21T03:04:49;97615.75;;;5.99;57.53
32251;BME280;41295;48.518;9.206;2023-02-21T03:07:01;97618.31;;;6.04;57.59
32251;BME280;41295;48.518;9.206;2023-02-21T03:09:12;97619.97;;;6.08;57.40
32251;BME280;41295;48.518;9.206;2023-02-21T03:11:17;97612.31;;;5.98;57.52
32251;BME280;41295;48.518;9.206;2023-02-21T03:13:30;97616.72;;;5.92;57.49
32251;BME280;41295;48.518;9.206;2023-02-21T03:15:43;97620.13;;;5.95;57.57
32251;BME280;41295;48.518;9.206;2023-02-21T03:17:50;97616.69;;;5.95;57.45
32251;BME280;41295;48.518;9.206;2023-02-21T03:19:57;97620.97;;;5.96;57.48
32251;BME280;41295;48.518;9.206;2023-02-21T03:22:05;97620.09;;;5.97;57.34
32251;BME280;41295;48.518;9.206;2023-02-21T03:24:10;97617.47;;;6.00;57.21
32251;BME280;41295;48.518;9.206;2023-02-21T03:26:16;97616.56;;;6.06;57.36
32251;BME280;41295;48.518;9.206;2023-02-21T03:28:19;97617.38;;;6.08;57.56
32251;BME280;41295;48.518;9.206;2023-02-21T03:30:23;97620.78;;;6.11;57.04
32251;BME280;41295;48.518;9.206;2023-02-21T03:32:29;97614.78;;;6.11;57.36
32251;BME280;41295;48.518;9.206;2023-02-21T03:34:31;97618.22;;;6.10;57.30
32251;BME280;41295;48.518;9.206;2023-02-21T03:36:35;97620.81;;;6.10;56.93
32251;BME280;41295;48.518;9.206;2023-02-21T03:38:39;97616.50;;;6.10;56.96
32251;BME280;41295;48.518;9.206;2023-02-21T03:40:42;97609.44;;;6.23;56.29
32251;BME280;41295;48.518;9.206;2023-02-21T03:42:45;97614.72;;;6.14;55.88
32251;BME280;41295;48.518;9.206;2023-02-21T03:44:47;97607.88;;;6.10;56.01
32251;BME280;41295;48.518;9.206;2023-02-21T03:46:50;97608.78;;;6.07;56.05
32251;BME280;41295;48.518;9.206;2023-02-21T03:48:52;97599.94;;;6.21;55.88
32251;BME280;41295;48.518;9.206;2023-02-21T03:50:55;97602.66;;;6.11;55.94
32251;BME280;41295;48.518;9.206;2023-02-21T03:52:58;97607.91;;;6.07;55.95
32251;BME280;41295;48.518;9.206;2023-02-21T03:55:02;97607.88;;;6.10;55.76
32251;BME280;41295;48.518;9.206;2023-02-21T03:57:05;97612.25;;;6.03;55.90
32251;BME280;41295;48.518;9.206;2023-02-21T03:59:07;97608.69;;;6.13;55.60
32251;BME280;41295;48.518;9.206;2023-02-21T04:01:10;97611.38;;;6.06;55.57
32251;BME280;41295;48.518;9.206;2023-02-21T04:03:13;97609.69;;;6.01;56.05
32251;BME280;41295;48.518;9.206;2023-02-21T04:05:16;97614.06;;;5.96;56.05
32251;BME280;41295;48.518;9.206;2023-02-21T04:07:19;97614.13;;;5.92;56.33
32251;BME280;41295;48.518;9.206;2023-02-21T04:09:22;97612.41;;;5.90;56.08
32251;BME280;41295;48.518;9.206;2023-02-21T04:11:28;97616.72;;;5.93;56.11
32251;BME280;41295;48.518;9.206;2023-02-21T04:13:32;97610.69;;;5.93;56.11
32251;BME280;41295;48.518;9.206;2023-02-21T04:15:34;97608.22;;;5.82;56.20
32251;BME280;41295;48.518;9.206;2023-02-21T04:17:37;97605.69;;;5.78;56.51
32251;BME280;41295;48.518;9.206;2023-02-21T04:19:40;97604.06;;;5.71;56.43
32251;BME280;41295;48.518;9.206;2023-02-21T04:21:42;97602.19;;;5.81;56.30
32251;BME280;41295;48.518;9.206;2023-02-21T04:23:45;97608.16;;;5.86;55.86
32251;BME280;41295;48.518;9.206;2023-02-21T04:25:53;97599.53;;;5.87;56.15
32251;BME280;41295;48.518;9.206;2023-02-21T04:27:57;97607.94;;;6.04;55.54
32251;BME280;41295;48.518;9.206;2023-02-21T04:29:59;97604.75;;;5.83;56.16
32251;BME280;41295;48.518;9.206;2023-02-21T04:32:02;97605.25;;;6.15;55.00
32251;BME280;41295;48.518;9.206;2023-02-21T04:34:05;97603.63;;;6.02;55.48
32251;BME280;41295;48.518;9.206;2023-02-21T04:36:12;97608.00;;;5.97;55.32
32251;BME280;41295;48.518;9.206;2023-02-21T04:38:18;97604.75;;;5.83;55.52
32251;BME280;41295;48.518;9.206;2023-02-21T04:40:21;97603.16;;;5.72;56.04
32251;BME280;41295;48.518;9.206;2023-02-21T04:42:23;97603.75;;;5.92;55.55
32251;BME280;41295;48.518;9.206;2023-02-21T04:44:27;97603.94;;;5.77;55.63
32251;BME280;41295;48.518;9.206;2023-02-21T04:46:30;97607.53;;;5.67;55.98
32251;BME280;41295;48.518;9.206;2023-02-21T04:48:32;97609.31;;;5.63;56.06
32251;BME280;41295;48.518;9.206;2023-02-21T04:50:35;97608.50;;;5.58;56.33
32251;BME280;41295;48.518;9.206;2023-02-21T04:52:37;97613.69;;;5.58;56.53
32251;BME280;41295;48.518;9.206;2023-02-21T04:54:41;97606.81;;;5.54;56.59
32251;BME280;41295;48.518;9.206;2023-02-21T04:56:43;97598.97;;;5.62;56.60
32251;BME280;41295;48.518;9.206;2023-02-21T04:58:47;97601.66;;;5.52;56.54
32251;BME280;41295;48.518;9.206;2023-02-21T05:00:51;97600.88;;;5.47;56.72
32251;BME280;41295;48.518;9.206;2023-02-21T05:02:53;97600.00;;;5.47;56.59
32251;BME280;41295;48.518;9.206;2023-02-21T05:04:56;97603.41;;;5.50;56.38
32251;BME280;41295;48.518;9.206;2023-02-21T05:06:59;97595.69;;;5.49;56.68
32251;BME280;41295;48.518;9.206;2023-02-21T05:09:02;97596.59;;;5.45;56.39
32251;BME280;41295;48.518;9.206;2023-02-21T05:11:05;97595.75;;;5.44;56.55
32251;BME280;41295;48.518;9.206;2023-02-21T05:13:09;97594.91;;;5.42;56.61
32251;BME280;41295;48.518;9.206;2023-02-21T05:15:12;97594.97;;;5.37;56.89
32251;BME280;41295;48.518;9.206;2023-02-21T05:17:16;97594.09;;;5.37;56.70
32251;BME280;41295;48.518;9.206;2023-02-21T05:19:19;97593.16;;;5.44;56.64
32251;BME280;41295;48.518;9.206;2023-02-21T05:21:28;97592.34;;;5.39;56.99
32251;BME280;41295;48.518;9.206;2023-02-21T05:23:30;97599.31;;;5.34;57.10
32251;BME280;41295;48.518;9.206;2023-02-21T05:25:36;97595.03;;;5.31;57.25
32251;BME280;41295;48.518;9.206;2023-02-21T05:27:38;97594.06;;;5.40;57.04
32251;BME280;41295;48.518;9.206;2023-02-21T05:29:44;97605.09;;;5.54;56.95
32251;BME280;41295;48.518;9.206;2023-02-21T05:31:47;97601.66;;;5.54;57.18
32251;BME280;41295;48.518;9.206;2023-02-21T05:33:51;97599.06;;;5.57;56.92
32251;BME280;41295;48.518;9.206;2023-02-21T05:35:54;97599.03;;;5.59;57.18
32251;BME280;41295;48.518;9.206;2023-02-21T05:37:57;97605.34;;;5.36;57.46
32251;BME280;41295;48.518;9.206;2023-02-21T05:40:00;97602.75;;;5.36;57.44
32251;BME280;41295;48.518;9.206;2023-02-21T05:42:03;97606.28;;;5.25;57.81
32251;BME280;41295;48.518;9.206;2023-02-21T05:44:05;97606.31;;;5.22;58.13
32251;BME280;41295;48.518;9.206;2023-02-21T05:46:16;97606.31;;;5.22;57.75
32251;BME280;41295;48.518;9.206;2023-02-21T05:48:19;97602.03;;;5.21;57.87
32251;BME280;41295;48.518;9.206;2023-02-21T05:50:23;97612.41;;;5.16;57.93
32251;BME280;41295;48.518;9.206;2023-02-21T05:52:26;97609.00;;;5.14;58.08
32251;BME280;41295;48.518;9.206;2023-02-21T05:54:28;97612.53;;;5.05;58.23
32251;BME280;41295;48.518;9.206;2023-02-21T05:56:36;97611.66;;;5.07;58.13
32251;BME280;41295;48.518;9.206;2023-02-21T05:58:39;97611.72;;;4.99;58.41
32251;BME280;41295;48.518;9.206;2023-02-21T06:00:42;97611.81;;;4.91;58.77
32251;BME280;41295;48.518;9.206;2023-02-21T06:02:45;97612.66;;;4.93;58.85
32251;BME280;41295;48.518;9.206;2023-02-21T06:04:47;97611.78;;;4.92;58.60
32251;BME280;41295;48.518;9.206;2023-02-21T06:06:51;97611.81;;;4.91;58.77
32251;BME280;41295;48.518;9.206;2023-02-21T06:08:54;97607.53;;;4.87;58.76
32251;BME280;41295;48.518;9.206;2023-02-21T06:10:56;97609.97;;;5.02;59.01
32251;BME280;41295;48.518;9.206;2023-02-21T06:12:59;97604.91;;;4.91;59.15
32251;BME280;41295;48.518;9.206;2023-02-21T06:15:02;97609.28;;;4.83;59.03
32251;BME280;41295;48.518;9.206;2023-02-21T06:17:07;97608.47;;;4.79;59.27
32251;BME280;41295;48.518;9.206;2023-02-21T06:19:11;97605.91;;;4.76;59.52
32251;BME280;41295;48.518;9.206;2023-02-21T06:21:16;97605.81;;;4.87;59.56
32251;BME280;41295;48.518;9.206;2023-02-21T06:23:20;97602.44;;;4.80;59.67
32251;BME280;41295;48.518;9.206;2023-02-21T06:25:23;97608.25;;;5.01;58.84
32251;BME280;41295;48.518;9.206;2023-02-21T06:27:26;97603.00;;;5.11;58.31
32251;BME280;41295;48.518;9.206;2023-02-21T06:29:28;97605.63;;;5.04;58.33
32251;BME280;41295;48.518;9.206;2023-02-21T06:31:31;97603.97;;;4.99;58.14
32251;BME280;41295;48.518;9.206;2023-02-21T06:33:34;97598.09;;;4.82;58.79
32251;BME280;41295;48.518;9.206;2023-02-21T06:35:36;97611.13;;;4.68;59.43
32251;BME280;41295;48.518;9.206;2023-02-21T06:37:39;97606.00;;;4.64;59.53
32251;BME280;41295;48.518;9.206;2023-02-21T06:39:44;97610.31;;;4.63;59.89
32251;BME280;41295;48.518;9.206;2023-02-21T06:41:48;97609.50;;;4.56;60.23
32251;BME280;41295;48.518;9.206;2023-02-21T06:43:52;97610.28;;;4.66;60.04
32251;BME280;41295;48.518;9.206;2023-02-21T06:45:54;97611.03;;;4.84;59.34
32251;BME280;41295;48.518;9.206;2023-02-21T06:47:57;97607.38;;;5.05;58.63
32251;BME280;41295;48.518;9.206;2023-02-21T06:49:59;97614.41;;;4.91;59.39
32251;BME280;41295;48.518;9.206;2023-02-21T06:52:02;97620.19;;;5.13;58.80
32251;BME280;41295;48.518;9.206;2023-02-21T06:54:06;97615.97;;;5.04;58.82
32251;BME280;41295;48.518;9.206;2023-02-21T06:56:10;97615.78;;;5.25;58.45
32251;BME280;41295;48.518;9.206;2023-02-21T06:58:13;97614.13;;;5.17;58.46
32251;BME280;41295;48.518;9.206;2023-02-21T07:00:16;97616.78;;;5.10;58.57
32251;BME280;41295;48.518;9.206;2023-02-21T07:02:19;97616.81;;;5.07;58.88
32251;BME280;41295;48.518;9.206;2023-02-21T07:04:22;97603.00;;;5.08;59.05
32251;BME280;41295;48.518;9.206;2023-02-21T07:06:25;97605.56;;;5.12;58.86
32251;BME280;41295;48.518;9.206;2023-02-21T07:08:30;97599.47;;;5.20;58.57
32251;BME280;41295;48.518;9.206;2023-02-21T07:10:33;97612.44;;;5.15;58.99
32251;BME280;41295;48.518;9.206;2023-02-21T07:12:36;97606.44;;;5.10;58.95
32251;BME280;41295;48.518;9.206;2023-02-21T07:14:39;97607.28;;;5.12;59.22
32251;BME280;41295;48.518;9.206;2023-02-21T07:16:42;97608.16;;;5.12;59.13
32251;BME280;41295;48.518;9.206;2023-02-21T07:18:45;97604.66;;;5.18;58.78
32251;BME280;41295;48.518;9.206;2023-02-21T07:20:48;97602.88;;;5.23;59.16
32251;BME280;41295;48.518;9.206;2023-02-21T07:22:50;97599.34;;;5.31;58.78
32251;BME280;41295;48.518;9.206;2023-02-21T07:24:53;97595.06;;;5.28;58.70
32251;BME280;41295;48.518;9.206;2023-02-21T07:26:56;97593.31;;;5.32;58.66
32251;BME280;41295;48.518;9.206;2023-02-21T07:29:00;97598.44;;;5.35;58.64
32251;BME280;41295;48.518;9.206;2023-02-21T07:31:03;97594.97;;;5.37;58.29
32251;BME280;41295;48.518;9.206;2023-02-21T07:33:06;97594.91;;;5.42;58.62
32251;BME280;41295;48.518;9.206;2023-02-21T07:35:08;97599.19;;;5.46;58.34
32251;BME280;41295;48.518;9.206;2023-02-21T07:37:11;97599.13;;;5.49;58.07
32251;BME280;41295;48.518;9.206;2023-02-21T07:39:14;97602.41;;;5.64;57.42
32251;BME280;41295;48.518;9.206;2023-02-21T07:41:17;97605.88;;;5.61;57.75
32251;BME280;41295;48.518;9.206;2023-02-21T07:43:20;97605.84;;;5.66;57.72
32251;BME280;41295;48.518;9.206;2023-02-21T07:45:24;97603.00;;;5.85;56.80
32251;BME280;41295;48.518;9.206;2023-02-21T07:47:26;97604.88;;;5.73;57.13
32251;BME280;41295;48.518;9.206;2023-02-21T07:49:29;97601.34;;;5.81;57.19
32251;BME280;41295;48.518;9.206;2023-02-21T07:51:32;97607.31;;;5.86;57.47
32251;BME280;41295;48.518;9.206;2023-02-21T07:53:34;97598.72;;;5.84;57.18
32251;BME280;41295;48.518;9.206;2023-02-21T07:55:37;97607.06;;;6.06;56.79
32251;BME280;41295;48.518;9.206;2023-02-21T07:57:40;97607.97;;;6.02;56.69
32251;BME280;41295;48.518;9.206;2023-02-21T07:59:42;97606.31;;;5.96;57.13
32251;BME280;41295;48.518;9.206;2023-02-21T08:01:47;97608.00;;;5.99;57.05
32251;BME280;41295;48.518;9.206;2023-02-21T08:03:50;97608.91;;;5.96;57.46
32251;BME280;41295;48.518;9.206;2023-02-21T08:05:52;97606.34;;;5.95;57.51
32251;BME280;41295;48.518;9.206;2023-02-21T08:07:55;97613.97;;;6.02;57.58
32251;BME280;41295;48.518;9.206;2023-02-21T08:09:57;97608.78;;;6.06;57.15
32251;BME280;41295;48.518;9.206;2023-02-21T08:12:00;97599.31;;;6.03;57.47
32251;BME280;41295;48.518;9.206;2023-02-21T08:14:03;97604.50;;;6.01;57.81
32251;BME280;41295;48.518;9.206;2023-02-21T08:16:06;97607.06;;;6.03;57.85
32251;BME280;41295;48.518;9.206;2023-02-21T08:18:15;97604.47;;;6.05;57.77
32251;BME280;41295;48.518;9.206;2023-02-21T08:20:21;97609.66;;;6.06;57.92
32251;BME280;41295;48.518;9.206;2023-02-21T08:22:23;97605.31;;;6.08;58.02
32251;BME280;41295;48.518;9.206;2023-02-21T08:24:26;97607.88;;;6.10;57.99
32251;BME280;41295;48.518;9.206;2023-02-21T08:26:28;97602.63;;;6.13;57.87
32251;BME280;41295;48.518;9.206;2023-02-21T08:28:31;97608.59;;;6.18;57.83
32251;BME280;41295;48.518;9.206;2023-02-21T08:30:34;97599.63;;;6.43;57.43
32251;BME280;41295;48.518;9.206;2023-02-21T08:32:37;97605.84;;;6.32;57.63
32251;BME280;41295;48.518;9.206;2023-02-21T08:34:43;97604.03;;;6.37;57.71
32251;BME280;41295;48.518;9.206;2023-02-21T08:36:46;97604.88;;;6.38;57.91
32251;BME280;41295;48.518;9.206;2023-02-21T08:38:48;97605.28;;;6.67;57.11
32251;BME280;41295;48.518;9.206;2023-02-21T08:40:51;97607.94;;;6.64;57.51
32251;BME280;41295;48.518;9.206;2023-02-21T08:42:58;97607.19;;;6.57;58.01
32251;BME280;41295;48.518;9.206;2023-02-21T08:45:01;97614.81;;;6.66;57.76
32251;BME280;41295;48.518;9.206;2023-02-21T08:47:04;97609.44;;;6.77;57.47
32251;BME280;41295;48.518;9.206;2023-02-21T08:49:08;97608.78;;;6.66;57.74
32251;BME280;41295;48.518;9.206;2023-02-21T08:51:12;97605.19;;;6.73;57.59
32251;BME280;41295;48.518;9.206;2023-02-21T08:53:15;97617.38;;;6.68;57.76
32251;BME280;41295;48.518;9.206;2023-02-21T08:55:18;97606.84;;;6.77;57.43
32251;BME280;41295;48.518;9.206;2023-02-21T08:57:21;97610.00;;;6.96;56.72
32251;BME280;41295;48.518;9.206;2023-02-21T08:59:24;97610.28;;;6.78;57.08
32251;BME280;41295;48.518;9.206;2023-02-21T09:01:30;97604.16;;;6.83;57.23
32251;BME280;41295;48.518;9.206;2023-02-21T09:03:34;97617.19;;;6.77;57.44
32251;BME280;41295;48.518;9.206;2023-02-21T09:05:37;97615.25;;;6.92;57.52
32251;BME280;41295;48.518;9.206;2023-02-21T09:07:41;97611.53;;;7.07;56.99
32251;BME280;41295;48.518;9.206;2023-02-21T09:09:44;97608.09;;;7.05;57.47
32251;BME280;41295;48.518;9.206;2023-02-21T09:11:47;97603.91;;;6.97;57.31
32251;BME280;41295;48.518;9.206;2023-02-21T09:13:50;97610.81;;;6.98;57.45
32251;BME280;41295;48.518;9.206;2023-02-21T09:15:55;97602.16;;;7.00;57.79
32251;BME280;41295;48.518;9.206;2023-02-21T09:17:58;97600.38;;;7.02;58.03
32251;BME280;41295;48.518;9.206;2023-02-21T09:20:03;97611.56;;;7.05;58.13
32251;BME280;41295;48.518;9.206;2023-02-21T09:22:07;97609.78;;;7.09;58.42
32251;BME280;41295;48.518;9.206;2023-02-21T09:24:11;97613.97;;;7.15;58.40
32251;BME280;41295;48.518;9.206;2023-02-21T09:26:13;97607.91;;;7.16;58.42
32251;BME280;41295;48.518;9.206;2023-02-21T09:28:18;97591.09;;;7.37;57.81
32251;BME280;41295;48.518;9.206;2023-02-21T09:30:23;97592.06;;;7.31;58.38
32251;BME280;41295;48.518;9.206;2023-02-21T09:32:27;97595.50;;;7.32;58.48
32251;BME280;41295;48.518;9.206;2023-02-21T09:34:30;97586.25;;;7.63;58.25
32251;BME280;41295;48.518;9.206;2023-02-21T09:36:34;97594.84;;;7.66;57.99
32251;BME280;41295;48.518;9.206;2023-02-21T09:38:37;97593.13;;;7.65;58.03
32251;BME280;41295;48.518;9.206;2023-02-21T09:40:47;97592.31;;;7.62;58.41
32251;BME280;41295;48.518;9.206;2023-02-21T09:42:52;97585.41;;;7.62;58.65
32251;BME280;41295;48.518;9.206;2023-02-21T09:44:56;97585.34;;;7.65;58.80
32251;BME280;41295;48.518;9.206;2023-02-21T09:47:01;97589.59;;;7.69;58.94
32251;BME280;41295;48.518;9.206;2023-02-21T09:49:10;97580.03;;;7.72;58.93
32251;BME280;41295;48.518;9.206;2023-02-21T09:51:15;97580.81;;;7.74;58.77
32251;BME280;41295;48.518;9.206;2023-02-21T09:53:22;97584.22;;;7.77;59.34
32251;BME280;41295;48.518;9.206;2023-02-21T09:55:29;97585.00;;;7.81;58.87
32251;BME280;41295;48.518;9.206;2023-02-21T09:57:35;97575.28;;;7.91;59.04
32251;BME280;41295;48.518;9.206;2023-02-21T09:59:38;97572.56;;;7.96;58.79
32251;BME280;41295;48.518;9.206;2023-02-21T10:01:49;97568.75;;;8.12;58.27
32251;BME280;41295;48.518;9.206;2023-02-21T10:04:01;97567.97;;;8.09;58.46
32251;BME280;41295;48.518;9.206;2023-02-21T10:06:15;97571.38;;;8.11;58.45
32251;BME280;41295;48.518;9.206;2023-02-21T10:08:26;97577.28;;;8.17;58.46
32251;BME280;41295;48.518;9.206;2023-02-21T10:10:43;97574.66;;;8.19;58.74
32251;BME280;41295;48.518;9.206;2023-02-21T10:12:53;97573.53;;;8.29;58.73
32251;BME280;41295;48.518;9.206;2023-02-21T10:15:38;97557.13;;;8.27;58.69
32251;BME280;41295;48.518;9.206;2023-02-21T10:17:46;97569.94;;;8.35;58.37
32251;BME280;41295;48.518;9.206;2023-02-21T10:19:53;97562.97;;;8.37;58.52
32251;BME280;41295;48.518;9.206;2023-02-21T10:21:57;97564.72;;;8.37;58.37
32251;BME280;41295;48.518;9.206;2023-02-21T10:24:02;97568.09;;;8.40;58.46
32251;BME280;41295;48.518;9.206;2023-02-21T10:26:08;97566.31;;;8.42;58.68
32251;BME280;41295;48.518;9.206;2023-02-21T10:28:16;97555.88;;;8.44;58.88
32251;BME280;41295;48.518;9.206;2023-02-21T10:30:26;97554.03;;;8.49;58.72
32251;BME280;41295;48.518;9.206;2023-02-21T10:32:30;97553.09;;;8.52;58.65
32251;BME280;41295;48.518;9.206;2023-02-21T10:34:33;97559.91;;;8.58;58.96
32251;BME280;41295;48.518;9.206;2023-02-21T10:36:36;97552.94;;;8.60;59.04
32251;BME280;41295;48.518;9.206;2023-02-21T10:38:40;97557.22;;;8.62;58.84
32251;BME280;41295;48.518;9.206;2023-02-21T10:40:46;97564.06;;;8.65;58.85
32251;BME280;41295;48.518;9.206;2023-02-21T10:42:55;97558.75;;;8.70;59.00
32251;BME280;41295;48.518;9.206;2023-02-21T10:45:03;97554.28;;;8.75;58.72
32251;BME280;41295;48.518;9.206;2023-02-21T10:47:13;97556.81;;;8.78;58.87
32251;BME280;41295;48.518;9.206;2023-02-21T10:49:23;97550.69;;;8.79;58.51
32251;BME280;41295;48.518;9.206;2023-02-21T10:51:29;97554.13;;;8.81;58.54
32251;BME280;41295;48.518;9.206;2023-02-21T10:53:34;97550.47;;;8.88;58.32
32251;BME280;41295;48.518;9.206;2023-02-21T10:55:37;97545.19;;;8.92;58.03
32251;BME280;41295;48.518;9.206;2023-02-21T10:57:41;97549.31;;;9.00;58.11
32251;BME280;41295;48.518;9.206;2023-02-21T10:59:47;97548.44;;;9.00;57.86
32251;BME280;41295;48.518;9.206;2023-02-21T11:01:53;97539.63;;;9.06;57.24
32251;BME280;41295;48.518;9.206;2023-02-21T11:03:58;97537.03;;;9.06;57.11
32251;BME280;41295;48.518;9.206;2023-02-21T11:06:02;97530.00;;;9.08;57.07
32251;BME280;41295;48.518;9.206;2023-02-21T11:08:06;97524.56;;;9.17;57.12
32251;BME280;41295;48.518;9.206;2023-02-21T11:10:26;97527.13;;;9.19;57.15
32251;BME280;41295;48.518;9.206;2023-02-21T11:12:29;97520.94;;;9.23;56.71
32251;BME280;41295;48.518;9.206;2023-02-21T11:14:33;97519.97;;;9.27;56.49
32251;BME280;41295;48.518;9.206;2023-02-21T11:16:36;97522.34;;;9.35;56.18
32251;BME280;41295;48.518;9.206;2023-02-21T11:18:40;97518.75;;;9.39;55.88
32251;BME280;41295;48.518;9.206;2023-02-21T11:20:43;97521.06;;;9.50;55.17
32251;BME280;41295;48.518;9.206;2023-02-21T11:22:47;97509.78;;;9.49;54.75
32251;BME280;41295;48.518;9.206;2023-02-21T11:24:54;97516.69;;;9.81;52.75
32251;BME280;41295;48.518;9.206;2023-02-21T11:26:59;97512.25;;;9.83;52.61
32251;BME280;41295;48.518;9.206;2023-02-21T11:29:06;97500.91;;;9.85;52.33
32251;BME280;41295;48.518;9.206;2023-02-21T11:31:16;97506.16;;;9.84;52.54
32251;BME280;41295;48.518;9.206;2023-02-21T11:33:21;97499.16;;;9.86;52.42
32251;BME280;41295;48.518;9.206;2023-02-21T11:35:27;97493.91;;;9.88;52.47